createdAt,value
2023-08-05T00:03:37.427Z,4.68
2023-08-05T00:08:30.673Z,5.38
2023-08-05T00:13:24.041Z,5.43
2023-08-05T00:18:18.568Z,4.78
2023-08-05T00:23:11.793Z,5.40
2023-08-05T00:28:05.277Z,5.65
2023-08-05T00:32:58.459Z,4.00
2023-08-05T00:37:53.078Z,4.68
2023-08-05T00:42:46.266Z,5.70
2023-08-05T00:47:39.508Z,5.47
2023-08-05T00:52:32.845Z,3.47
2023-08-05T00:57:27.742Z,3.50
2023-08-05T01:02:20.861Z,4.32
2023-08-05T01:07:15.840Z,4.97
2023-08-05T01:12:10.102Z,4.68
2023-08-05T01:17:04.996Z,4.70
2023-08-05T01:22:06.165Z,5.03
2023-08-05T01:27:00.917Z,4.63
2023-08-05T01:31:55.142Z,4.65
2023-08-05T01:36:48.504Z,4.50
2023-08-05T01:41:41.844Z,4.63
2023-08-05T01:46:36.362Z,5.88
2023-08-05T01:51:29.850Z,5.65
2023-08-05T01:56:23.064Z,6.50
2023-08-05T02:01:16.322Z,7.00
2023-08-05T02:06:10.932Z,5.50
2023-08-05T02:11:05.169Z,5.53
2023-08-05T02:15:58.331Z,7.18
2023-08-05T02:20:51.488Z,6.40
2023-08-05T02:25:46.026Z,7.00
2023-08-05T02:30:39.797Z,6.68
2023-08-05T02:35:33.131Z,6.68
2023-08-05T02:40:27.657Z,6.00
2023-08-05T02:45:22.223Z,7.07
2023-08-05T02:50:15.606Z,9.13
2023-08-05T02:55:09.418Z,8.13
2023-08-05T03:00:04.505Z,7.50
2023-08-05T03:04:59.103Z,6.97
2023-08-05T03:09:52.427Z,8.48
2023-08-05T03:14:45.592Z,8.75
2023-08-05T03:19:38.915Z,10.50
2023-08-05T03:24:33.789Z,9.00
2023-08-05T03:29:27.174Z,9.27
2023-08-05T03:34:20.691Z,10.07
2023-08-05T03:39:14.468Z,10.07
2023-08-05T03:44:09.379Z,10.85
2023-08-05T03:49:03.686Z,12.48
2023-08-05T03:53:57.427Z,11.02
2023-08-05T03:58:52.696Z,11.38
2023-08-05T04:03:47.693Z,12.30
2023-08-05T04:08:41.831Z,12.40
2023-08-05T04:13:36.037Z,12.15
2023-08-05T04:18:29.417Z,12.40
2023-08-05T04:23:25.339Z,13.32
2023-08-05T04:28:19.446Z,11.65
2023-08-05T04:33:13.076Z,11.70
2023-08-05T04:38:06.286Z,11.50
2023-08-05T04:43:00.776Z,11.60
2023-08-05T04:47:53.955Z,12.55
2023-08-05T04:52:47.829Z,11.60
2023-08-05T04:57:40.937Z,10.52
2023-08-05T05:02:35.508Z,11.00
2023-08-05T05:07:28.606Z,11.05
2023-08-05T05:12:21.753Z,12.43
2023-08-05T05:17:17.132Z,10.90
2023-08-05T05:22:11.979Z,10.98
2023-08-05T05:27:05.622Z,11.55
2023-08-05T05:31:58.747Z,10.18
2023-08-05T05:36:52.192Z,10.27
2023-08-05T05:41:47.016Z,9.73
2023-08-05T05:46:40.214Z,10.23
2023-08-05T05:51:33.417Z,7.80
2023-08-05T05:56:26.540Z,8.05
2023-08-05T06:01:21.062Z,9.05
2023-08-05T06:06:14.384Z,7.00
2023-08-05T06:11:08.559Z,7.13
2023-08-05T06:16:02.075Z,7.10
2023-08-05T06:20:56.627Z,8.15
2023-08-05T06:25:49.894Z,5.78
2023-08-05T06:30:45.081Z,6.38
2023-08-05T06:35:38.388Z,5.40
2023-08-05T06:40:33.136Z,4.28
2023-08-05T06:45:26.397Z,3.75
2023-08-05T06:50:19.734Z,5.30
2023-08-05T06:55:13.353Z,4.95
2023-08-05T07:00:09.495Z,5.43
2023-08-05T07:05:02.696Z,5.90
2023-08-05T07:10:02.039Z,4.68
2023-08-05T07:14:55.178Z,6.18
2023-08-05T07:19:50.829Z,6.32
2023-08-05T07:24:44.027Z,5.05
2023-08-05T07:29:39.327Z,4.95
2023-08-05T07:34:33.901Z,4.32
2023-08-05T07:39:34.588Z,4.10
2023-08-05T07:44:27.763Z,3.58
2023-08-05T07:49:21.108Z,4.05
2023-08-05T07:54:15.161Z,4.00
2023-08-05T07:59:10.071Z,3.50
2023-08-05T08:04:04.500Z,5.65
2023-08-05T08:08:57.762Z,4.53
2023-08-05T08:13:50.883Z,4.22
2023-08-05T08:18:45.441Z,4.88
2023-08-05T08:23:38.626Z,4.65
2023-08-05T08:28:31.936Z,5.65
2023-08-05T08:33:26.301Z,3.58
2023-08-05T08:38:21.542Z,3.90
2023-08-05T08:43:20.071Z,4.82
2023-08-05T08:48:16.979Z,5.57
2023-08-05T08:53:10.913Z,3.83
2023-08-05T08:58:05.685Z,4.57
2023-08-05T09:02:59.991Z,3.20
2023-08-05T09:07:53.644Z,3.58
2023-08-05T09:12:47.127Z,4.10
2023-08-05T09:17:41.795Z,5.05
2023-08-05T09:22:34.966Z,6.47
2023-08-05T09:27:28.170Z,4.55
2023-08-05T09:32:32.630Z,3.22
2023-08-05T09:37:32.029Z,3.28
2023-08-05T09:42:26.100Z,4.95
2023-08-05T09:47:24.266Z,4.30
2023-08-05T09:52:19.199Z,2.88
2023-08-05T09:57:15.062Z,4.18
2023-08-05T10:02:12.861Z,6.78
2023-08-05T10:07:06.202Z,5.30
2023-08-05T10:11:59.797Z,5.55
2023-08-05T10:16:54.572Z,3.05
2023-08-05T10:21:47.836Z,4.72
2023-08-05T10:26:45.067Z,2.70
2023-08-05T10:31:38.764Z,4.93
2023-08-05T10:36:45.026Z,5.28
2023-08-05T10:41:38.255Z,3.72
2023-08-05T10:46:33.417Z,2.50
2023-08-05T10:51:27.762Z,2.78
2023-08-05T10:56:31.344Z,5.22
2023-08-05T11:01:24.608Z,4.38
2023-08-05T11:06:26.568Z,3.20
2023-08-05T11:11:19.875Z,10.25
2023-08-05T11:16:15.420Z,2.95
2023-08-05T11:21:10.027Z,3.75
2023-08-05T11:26:03.652Z,2.67
2023-08-05T11:30:57.259Z,3.10
2023-08-05T11:35:55.142Z,3.28
2023-08-05T11:40:50.638Z,4.57
2023-08-05T11:45:44.509Z,2.70
2023-08-05T11:50:38.561Z,3.70
2023-08-05T11:55:37.160Z,4.97
2023-08-05T12:00:30.816Z,3.15
2023-08-05T12:05:24.960Z,4.97
2023-08-05T12:10:19.846Z,4.90
2023-08-05T12:15:15.782Z,2.97
2023-08-05T12:20:12.585Z,3.33
2023-08-05T12:30:02.174Z,3.03
2023-08-05T12:34:56.675Z,3.22
2023-08-05T12:39:49.853Z,3.35
2023-08-05T12:44:43.026Z,4.35
2023-08-05T12:49:37.390Z,3.88
2023-08-05T12:54:32.010Z,5.68
2023-08-05T12:59:25.412Z,4.60
2023-08-05T13:04:18.626Z,3.88
2023-08-05T13:09:11.813Z,4.22
2023-08-05T13:14:06.802Z,3.80
2023-08-05T13:18:59.952Z,5.75
2023-08-05T13:23:53.118Z,3.60
2023-08-05T13:28:46.257Z,4.18
2023-08-05T13:33:43.125Z,3.35
2023-08-05T13:43:29.471Z,4.07
2023-08-05T13:48:23.133Z,4.40
2023-08-05T13:53:17.647Z,3.92
2023-08-05T13:58:10.856Z,5.55
2023-08-05T14:03:04.092Z,3.65
2023-08-05T14:07:57.384Z,3.67
2023-08-05T14:12:51.884Z,3.25
2023-08-05T14:17:45.092Z,4.97
2023-08-05T14:22:38.327Z,4.53
2023-08-05T14:27:31.482Z,5.90
2023-08-05T14:32:28.628Z,3.20
2023-08-05T14:37:21.844Z,4.50
2023-08-05T14:42:15.029Z,4.07
2023-08-05T14:47:08.509Z,3.83
2023-08-05T14:52:03.126Z,5.63
2023-08-05T14:56:56.377Z,4.13
2023-08-05T15:01:49.796Z,6.60
2023-08-05T15:06:43.193Z,5.75
2023-08-05T15:11:37.773Z,5.18
2023-08-05T15:16:30.888Z,6.05
2023-08-05T15:21:24.213Z,4.35
2023-08-05T15:26:17.909Z,5.38
2023-08-05T15:31:18.857Z,4.60
2023-08-05T15:36:16.216Z,4.43
2023-08-05T15:41:09.308Z,5.15
2023-08-05T15:46:02.578Z,6.38
2023-08-05T15:51:04.789Z,6.20
2023-08-05T15:56:01.683Z,4.68
2023-08-05T16:01:01.343Z,3.70
2023-08-05T16:06:03.288Z,3.30
2023-08-05T16:11:01.224Z,3.58
2023-08-05T16:20:47.666Z,5.43
2023-08-05T16:25:42.270Z,5.03
2023-08-05T16:30:35.516Z,6.43
2023-08-05T16:35:28.878Z,5.10
2023-08-05T16:40:22.143Z,5.75
2023-08-05T16:45:19.459Z,3.90
2023-08-05T16:50:12.730Z,5.00
2023-08-05T16:55:06.558Z,4.40
2023-08-05T16:59:59.780Z,4.85
2023-08-05T17:04:55.849Z,6.90
2023-08-05T17:09:51.349Z,5.53
2023-08-05T17:14:44.799Z,6.80
2023-08-05T17:19:38.004Z,5.47
2023-08-05T17:24:32.514Z,4.93
2023-08-05T17:29:25.764Z,5.70
2023-08-05T17:34:18.969Z,6.38
2023-08-05T17:39:12.219Z,6.95
2023-08-05T17:44:06.975Z,6.63
2023-08-05T17:49:00.225Z,7.40
2023-08-05T17:53:53.476Z,6.75
2023-08-05T17:58:46.924Z,5.65
2023-08-05T18:03:41.588Z,6.90
2023-08-05T18:08:35.394Z,7.00
2023-08-05T18:13:28.683Z,6.28
2023-08-05T18:18:22.024Z,7.70
2023-08-05T18:23:16.990Z,6.68
2023-08-05T18:28:11.133Z,5.25
2023-08-05T18:33:04.742Z,7.30
2023-08-05T18:37:59.136Z,6.72
2023-08-05T18:42:53.759Z,5.15
2023-08-05T18:47:46.907Z,7.63
2023-08-05T18:52:40.081Z,7.70
2023-08-05T18:57:36.475Z,5.03
2023-08-05T19:02:31.168Z,5.20
2023-08-05T19:07:24.437Z,7.72
2023-08-05T19:12:17.642Z,7.93
2023-08-05T19:17:10.864Z,5.47
2023-08-05T19:22:06.039Z,6.32
2023-08-05T19:26:59.208Z,6.30
2023-08-05T19:31:52.718Z,7.07
2023-08-05T19:36:46.413Z,6.00
2023-08-05T19:41:41.067Z,7.60
2023-08-05T19:46:34.819Z,7.25
2023-08-05T19:51:28.116Z,7.07
2023-08-05T19:56:21.402Z,6.18
2023-08-05T20:01:15.956Z,8.30
2023-08-05T20:06:09.343Z,8.93
2023-08-05T20:11:02.490Z,6.50
2023-08-05T20:15:58.399Z,6.57
2023-08-05T20:20:53.194Z,7.35
2023-08-05T20:25:46.343Z,7.00
2023-08-05T20:30:39.735Z,6.53
2023-08-05T20:35:34.325Z,8.43
2023-08-05T20:40:29.244Z,7.43
2023-08-05T20:45:22.533Z,7.70
2023-08-05T20:50:16.050Z,6.72
2023-08-05T20:55:09.780Z,7.15
2023-08-05T21:00:06.069Z,8.13
2023-08-05T21:05:01.083Z,9.73
2023-08-05T21:09:54.267Z,7.20
2023-08-05T21:14:47.747Z,6.53
2023-08-05T21:19:42.359Z,6.90
2023-08-05T21:24:35.887Z,9.50
2023-08-05T21:29:29.099Z,7.32
2023-08-05T21:34:22.342Z,6.55
2023-08-05T21:39:16.912Z,7.35
2023-08-05T21:44:10.217Z,7.97
2023-08-05T21:49:03.316Z,9.30
2023-08-05T21:53:56.473Z,7.07
2023-08-05T21:58:50.994Z,9.55
2023-08-05T22:03:44.279Z,8.02
2023-08-05T22:08:37.693Z,8.73
2023-08-05T22:13:30.883Z,8.68
2023-08-05T22:18:25.471Z,9.43
2023-08-05T22:23:18.767Z,7.55
2023-08-05T22:28:12.059Z,7.32
2023-08-05T22:33:05.427Z,10.40
2023-08-05T22:38:00.155Z,8.70
2023-08-05T22:42:53.437Z,7.85
2023-08-05T22:47:46.723Z,9.38
2023-08-05T22:52:40.964Z,8.50
2023-08-05T22:57:35.578Z,10.13
2023-08-05T23:02:28.872Z,8.20
2023-08-05T23:07:22.108Z,11.48
2023-08-05T23:12:15.273Z,8.20
2023-08-05T23:17:09.760Z,8.02
2023-08-05T23:22:03.054Z,11.73
2023-08-05T23:26:56.262Z,8.68
2023-08-05T23:31:49.420Z,8.88
2023-08-05T23:36:44.124Z,10.27
2023-08-05T23:41:37.305Z,11.85
2023-08-05T23:46:30.543Z,9.02
2023-08-05T23:51:23.845Z,10.43
2023-08-05T23:56:18.510Z,8.55
